Time;durP1;ratioP1;P1;durP2;ratioP2;P2;SDS_P1;SDS_P2;PMS_P1;PMS_P2;Temp;Humidity;BMP_temperature;BMP_pressure;BME280_temperature;BME280_humidity;BME280_pressure;Samples;Min_cycle;Max_cycle;Signal;HPM_P1;HPM_P2
2022/03/15 00:02:17;;;;;;;4.60;2.43;;;;;;;3.46;51.39;101007.41;4959040;28;20180;-89
2022/03/15 00:04:43;;;;;;;5.10;2.53;;;;;;;3.38;51.81;101007.34;4975408;28;20627;-89
2022/03/15 00:07:13;;;;;;;3.60;2.30;;;;;;;3.38;51.87;101006.50;4975315;28;20181;-89
2022/03/15 00:09:38;;;;;;;5.37;2.60;;;;;;;3.35;52.37;101011.66;4958268;28;20207;-88
2022/03/15 00:12:05;;;;;;;5.30;3.17;;;;;;;3.40;52.18;101013.41;4975554;28;20212;-88
2022/03/15 00:14:31;;;;;;;9.53;3.60;;;;;;;3.21;52.35;101010.69;4958234;28;20283;-88
2022/03/15 00:16:57;;;;;;;4.60;1.80;;;;;;;3.06;53.04;101009.72;4958478;28;20208;-88
2022/03/15 00:19:23;;;;;;;4.90;2.50;;;;;;;3.09;52.79;101007.13;4975450;28;20185;-88
2022/03/15 00:21:49;;;;;;;4.13;2.50;;;;;;;3.16;52.98;101007.19;4975135;28;20172;-88
2022/03/15 00:24:15;;;;;;;10.80;2.13;;;;;;;3.27;52.60;101002.97;4958027;28;20239;-88
2022/03/15 00:26:41;;;;;;;13.20;5.73;;;;;;;3.31;52.84;101008.16;4975302;28;20184;-88
2022/03/15 00:29:06;;;;;;;5.50;2.57;;;;;;;3.35;52.62;101014.25;4974919;28;20300;-89
2022/03/15 00:31:31;;;;;;;5.53;3.43;;;;;;;3.30;52.15;101005.56;4974793;28;20670;-88
2022/03/15 00:33:57;;;;;;;3.47;1.63;;;;;;;3.16;52.62;101007.19;4973987;28;20231;-89
2022/03/15 00:36:25;;;;;;;7.73;3.27;;;;;;;3.19;52.57;100999.44;4957875;28;20180;-88
2022/03/15 00:38:51;;;;;;;6.17;2.93;;;;;;;3.22;52.32;100996.88;4975096;28;20183;-89
2022/03/15 00:41:17;;;;;;;2.97;1.97;;;;;;;3.15;52.40;100989.91;4974826;28;20180;-89
2022/03/15 00:43:42;;;;;;;3.97;2.03;;;;;;;2.98;52.84;100995.84;4957833;28;20180;-88
2022/03/15 00:46:08;;;;;;;3.43;1.93;;;;;;;2.79;53.41;100996.53;4957761;28;20268;-89
2022/03/15 00:48:34;;;;;;;5.33;3.00;;;;;;;2.63;54.13;100997.25;4974374;28;20563;-89
2022/03/15 00:50:59;;;;;;;3.57;2.67;;;;;;;2.59;54.04;100989.47;4974985;28;20180;-89
2022/03/15 00:53:25;;;;;;;5.83;2.50;;;;;;;2.76;54.21;100983.56;4974633;28;20637;-89
2022/03/15 00:55:50;;;;;;;2.93;1.97;;;;;;;2.93;53.73;100976.81;4957539;28;20187;-89
2022/03/15 00:58:16;;;;;;;5.60;2.47;;;;;;;2.92;53.43;100980.25;4974566;28;20255;-89
2022/03/15 01:00:48;;;;;;;2.47;1.70;;;;;;;2.96;53.11;100983.75;4974524;28;20176;-89
2022/03/15 01:03:13;;;;;;;2.50;1.90;;;;;;;2.80;53.17;100984.47;4974527;28;20176;-89
2022/03/15 01:05:40;;;;;;;3.90;1.97;;;;;;;2.48;54.55;100976.41;4974416;28;20180;-89
2022/03/15 01:08:05;;;;;;;4.17;2.53;;;;;;;2.29;55.71;100979.69;4974413;28;20235;-88
2022/03/15 01:10:31;;;;;;;3.53;1.90;;;;;;;2.25;55.95;100981.38;4957434;28;20263;-89
2022/03/15 01:12:56;;;;;;;3.90;1.77;;;;;;;2.37;55.78;100973.72;4957898;28;20202;-89
2022/03/15 01:15:24;;;;;;;3.00;2.37;;;;;;;2.48;55.50;100972.13;4957411;28;20619;-89
2022/03/15 01:17:50;;;;;;;1.77;1.60;;;;;;;2.69;54.67;100965.38;4957248;28;20649;-89
2022/03/15 01:20:15;;;;;;;5.63;2.67;;;;;;;2.67;54.17;100967.97;4974298;28;20184;-89
2022/03/15 01:22:41;;;;;;;7.43;1.93;;;;;;;2.49;54.42;100966.06;4974539;28;20176;-89
2022/03/15 01:25:07;;;;;;;3.83;1.70;;;;;;;2.30;55.06;100959.00;4974238;28;20214;-89
2022/03/15 01:27:34;;;;;;;4.87;2.60;;;;;;;2.25;55.69;100963.28;4974191;28;20631;-89
2022/03/15 01:29:59;;;;;;;4.13;2.23;;;;;;;2.41;55.42;100959.13;4974335;28;20555;-89
2022/03/15 01:32:25;;;;;;;2.03;1.77;;;;;;;2.62;54.47;100959.28;4974487;28;20169;-89
2022/03/15 01:34:50;;;;;;;2.77;1.53;;;;;;;2.70;54.22;100962.78;4974129;28;20180;-89
2022/03/15 01:37:16;;;;;;;3.47;2.20;;;;;;;2.71;53.72;100958.50;4974129;28;20184;-89
2022/03/15 01:39:42;;;;;;;5.13;2.17;;;;;;;2.60;54.25;100967.88;4974113;28;20511;-89
2022/03/15 01:42:07;;;;;;;4.93;1.90;;;;;;;2.54;54.65;100960.97;4957114;28;20184;-89
2022/03/15 01:44:34;;;;;;;5.50;2.07;;;;;;;2.44;54.84;100957.41;4974103;28;20618;-89
2022/03/15 01:47:01;;;;;;;5.43;3.27;;;;;;;2.22;55.49;100954.59;4974047;28;20716;-89
2022/03/15 01:49:26;;;;;;;4.03;2.10;;;;;;;2.22;55.45;100952.88;4973953;28;20267;-89
2022/03/15 01:51:52;;;;;;;6.53;2.40;;;;;;;2.14;56.00;100957.13;4974536;28;20622;-89
2022/03/15 01:54:20;;;;;;;3.43;1.53;;;;;;;2.13;56.29;100957.09;4956931;28;20199;-89
2022/03/15 01:56:46;;;;;;;2.83;1.80;;;;;;;2.17;56.41;100964.03;4974007;28;20181;-89
2022/03/15 01:59:14;;;;;;;4.80;2.80;;;;;;;2.23;56.21;100961.50;4973927;28;20182;-89
2022/03/15 02:01:41;;;;;;;2.33;1.30;;;;;;;2.26;55.40;100965.00;4977311;28;20271;-89
2022/03/15 02:04:07;;;;;;;11.07;2.30;;;;;;;2.24;55.65;100968.41;4977695;28;20183;-89
2022/03/15 02:06:44;;;;;;;2.37;1.77;;;;;;;2.00;55.98;100966.44;4977908;28;20175;-89
2022/03/15 02:09:14;;;;;;;3.03;2.03;;;;;;;1.88;57.00;100966.31;4977806;28;20229;-89
2022/03/15 02:11:42;;;;;;;4.83;2.27;;;;;;;1.96;56.40;100966.41;4977518;28;20215;-89
2022/03/15 02:14:08;;;;;;;7.17;2.47;;;;;;;2.06;56.26;100965.63;4960399;28;20272;-89
2022/03/15 02:16:34;;;;;;;2.27;1.90;;;;;;;2.12;56.42;100968.31;4977381;28;20267;-89
2022/03/15 02:19:01;;;;;;;7.40;2.87;;;;;;;2.16;56.35;100977.81;4977682;28;20221;-89
2022/03/15 02:21:27;;;;;;;6.20;2.23;;;;;;;2.12;56.00;100965.72;4977367;28;20263;-89
2022/03/15 02:23:53;;;;;;;3.67;2.10;;;;;;;2.11;55.13;100970.00;4977308;28;20324;-90
2022/03/15 02:26:19;;;;;;;4.10;2.10;;;;;;;2.00;55.87;100970.72;4977302;28;20279;-89
2022/03/15 02:28:45;;;;;;;3.70;2.77;;;;;;;1.95;56.41;100969.81;4977747;28;20358;-90
2022/03/15 02:31:11;;;;;;;8.10;2.53;;;;;;;1.90;56.35;100963.72;4977158;28;20196;-90
2022/03/15 02:33:36;;;;;;;6.07;2.50;;;;;;;1.90;56.38;100961.13;4960238;28;20195;-90
2022/03/15 02:36:02;;;;;;;5.30;1.70;;;;;;;2.03;56.01;100963.00;4977421;28;20611;-89
2022/03/15 02:38:27;;;;;;;9.20;3.07;;;;;;;2.03;55.75;100956.13;4977087;28;20172;-90
2022/03/15 02:40:53;;;;;;;3.97;2.17;;;;;;;1.96;55.98;100959.50;4977324;28;20512;-90
2022/03/15 02:43:18;;;;;;;10.90;4.33;;;;;;;1.98;56.42;100962.09;4959967;28;20681;-90
2022/03/15 02:45:44;;;;;;;3.90;2.67;;;;;;;1.82;56.62;100963.66;4976951;28;20194;-90
2022/03/15 02:48:10;;;;;;;4.33;1.80;;;;;;;1.74;57.26;100963.56;4959714;28;20676;-90
2022/03/15 02:50:35;;;;;;;2.70;2.07;;;;;;;1.79;57.25;100972.22;4959860;28;20527;-90
2022/03/15 02:53:01;;;;;;;3.63;2.00;;;;;;;1.87;57.08;100974.91;4976827;28;20180;-90
2022/03/15 02:55:26;;;;;;;3.67;2.20;;;;;;;1.85;57.11;100977.47;4976737;28;20193;-89
2022/03/15 02:57:52;;;;;;;5.03;2.57;;;;;;;1.77;57.10;100984.28;4977052;28;20598;-90
2022/03/15 03:00:17;;;;;;;3.63;1.33;;;;;;;1.66;57.66;100975.50;4959656;28;20634;-90
2022/03/15 03:02:43;;;;;;;5.03;2.43;;;;;;;1.65;57.98;100978.94;4976560;28;20195;-89
2022/03/15 03:05:09;;;;;;;3.13;2.07;;;;;;;1.71;57.63;100979.03;4976646;28;20180;-90
2022/03/15 03:07:38;;;;;;;2.90;1.70;;;;;;;1.71;57.42;100984.19;4959396;28;20211;-90
2022/03/15 03:10:05;;;;;;;7.20;2.00;;;;;;;1.67;57.15;100976.38;4976534;28;20189;-89
2022/03/15 03:12:31;;;;;;;2.13;1.93;;;;;;;1.67;57.92;100974.69;4976606;28;20188;-90
2022/03/15 03:14:57;;;;;;;12.47;2.27;;;;;;;1.71;57.69;100971.25;4976424;28;20433;-90
2022/03/15 03:17:24;;;;;;;2.13;1.30;;;;;;;1.80;56.79;100968.81;4976632;28;20176;-90
2022/03/15 03:19:50;;;;;;;1.70;1.27;;;;;;;1.80;56.95;100967.94;4959304;28;20601;-90
2022/03/15 03:22:16;;;;;;;3.70;1.93;;;;;;;1.75;56.83;100980.81;4959257;28;20178;-91
2022/03/15 03:24:41;;;;;;;3.07;2.40;;;;;;;1.74;57.30;100983.34;4976224;28;20183;-90
2022/03/15 03:27:07;;;;;;;8.03;3.27;;;;;;;1.73;57.48;100991.97;4976241;28;20184;-90
2022/03/15 03:29:32;;;;;;;4.70;1.80;;;;;;;1.77;57.08;100998.91;4976130;28;20203;-90
2022/03/15 03:31:58;;;;;;;6.17;1.70;;;;;;;1.81;56.43;101000.66;4976451;28;20190;-90
2022/03/15 03:34:23;;;;;;;3.57;2.17;;;;;;;1.67;56.72;101003.09;4976120;28;20242;-91
2022/03/15 03:36:49;;;;;;;3.83;2.83;;;;;;;1.56;57.42;101002.09;4959016;28;20195;-90
2022/03/15 03:39:14;;;;;;;10.80;3.93;;;;;;;1.38;57.42;100996.69;4976284;28;20639;-90
2022/03/15 03:41:40;;;;;;;19.23;4.27;;;;;;;1.22;58.65;100999.88;4976038;28;20183;-90
2022/03/15 03:44:06;;;;;;;10.90;5.57;;;;;;;1.30;58.43;101003.44;4976192;28;20190;-90
2022/03/15 03:46:31;;;;;;;7.63;4.37;;;;;;;1.37;58.38;101007.84;4975880;28;20268;-90
2022/03/15 03:48:57;;;;;;;10.97;5.37;;;;;;;1.40;58.53;101007.03;4975778;28;20202;-91
2022/03/15 03:51:23;;;;;;;14.70;7.20;;;;;;;1.36;58.23;101008.72;4976072;28;20186;-91
2022/03/15 03:53:49;;;;;;;9.30;6.00;;;;;;;1.33;58.19;101000.91;4975777;28;20198;-91
2022/03/15 03:56:15;;;;;;;14.77;7.70;;;;;;;1.24;58.63;100998.19;4975790;28;20181;-91
2022/03/15 03:58:40;;;;;;;22.60;11.30;;;;;;;1.20;58.89;100993.84;4958718;28;20182;-90
2022/03/15 04:01:06;;;;;;;13.40;7.17;;;;;;;1.21;58.88;100991.25;4975887;28;20176;-90
2022/03/15 04:03:33;;;;;;;9.80;5.57;;;;;;;1.17;58.71;100991.19;4975894;28;20187;-90
2022/03/15 04:06:01;;;;;;;11.07;6.70;;;;;;;1.09;58.68;100969.56;4958520;28;20195;-90
2022/03/15 04:08:26;;;;;;;8.03;4.83;;;;;;;0.99;59.08;100962.53;4958343;28;20490;-90
2022/03/15 04:10:52;;;;;;;9.63;4.80;;;;;;;1.02;59.14;100967.75;4975476;28;20940;-90
2022/03/15 04:13:18;;;;;;;6.43;4.33;;;;;;;1.12;58.79;100969.59;4975349;28;20183;-90
2022/03/15 04:15:49;;;;;;;7.67;5.10;;;;;;;1.13;59.05;100968.75;4958346;28;20192;-90
2022/03/15 04:18:14;;;;;;;9.13;5.17;;;;;;;1.16;58.31;100971.38;4975607;28;20471;-90
2022/03/15 04:20:41;;;;;;;9.70;6.03;;;;;;;1.17;58.61;100974.00;4975220;28;20433;-90
2022/03/15 04:23:08;;;;;;;15.67;5.70;;;;;;;1.14;58.28;100973.06;4974912;28;20692;-90
2022/03/15 04:25:34;;;;;;;11.33;6.00;;;;;;;1.09;58.20;100977.31;4975497;28;20547;-90
2022/03/15 04:28:00;;;;;;;6.47;3.10;;;;;;;0.91;58.08;100971.88;4975586;28;20548;-89
2022/03/15 04:30:32;;;;;;;11.03;3.77;;;;;;;0.78;58.97;100982.84;4974894;28;20197;-90
2022/03/15 04:33:01;;;;;;;8.73;3.67;;;;;;;0.74;58.85;100979.31;4958143;28;20904;-90
2022/03/15 04:35:27;;;;;;;7.97;3.87;;;;;;;0.74;59.02;100975.88;4974944;28;20512;-90
2022/03/15 04:37:54;;;;;;;5.57;3.97;;;;;;;0.76;59.51;100974.22;4957945;28;20418;-90
2022/03/15 04:40:20;;;;;;;6.73;3.27;;;;;;;0.87;59.13;100973.50;4957885;28;20460;-91
2022/03/15 04:42:48;;;;;;;4.33;2.87;;;;;;;0.94;59.15;100959.00;4974861;28;20460;-90
2022/03/15 04:45:15;;;;;;;5.37;3.27;;;;;;;1.00;59.14;100959.06;4974985;28;20204;-90
2022/03/15 04:47:40;;;;;;;8.47;2.80;;;;;;;1.05;58.91;100957.44;4974687;28;20477;-90
2022/03/15 04:50:07;;;;;;;5.50;2.47;;;;;;;1.07;58.79;100955.75;4957753;28;20955;-90
2022/03/15 04:52:34;;;;;;;6.17;3.27;;;;;;;0.99;59.41;100953.06;4974731;28;20178;-90
2022/03/15 04:55:00;;;;;;;12.17;4.10;;;;;;;0.99;59.76;100947.03;4974986;28;20510;-90
2022/03/15 04:57:26;;;;;;;6.83;4.00;;;;;;;1.05;59.96;100952.25;4974668;28;20428;-90
2022/03/15 04:59:51;;;;;;;4.70;3.17;;;;;;;1.13;59.59;100955.81;4974653;28;20643;-90
2022/03/15 05:02:16;;;;;;;13.33;4.20;;;;;;;1.19;59.23;100959.38;4974550;28;20190;-90
2022/03/15 05:04:42;;;;;;;4.63;3.30;;;;;;;1.22;59.16;100962.00;4974541;28;20550;-90
2022/03/15 05:07:07;;;;;;;6.00;4.07;;;;;;;1.30;59.06;100969.88;4974751;28;20182;-90
2022/03/15 05:09:33;;;;;;;5.90;2.70;;;;;;;1.38;58.43;100968.25;4957397;28;20293;-90
2022/03/15 05:11:59;;;;;;;8.00;3.37;;;;;;;1.44;58.54;100960.56;4974440;28;20624;-90
2022/03/15 05:14:25;;;;;;;7.77;3.63;;;;;;;1.44;58.97;100955.41;4974446;28;20174;-90
2022/03/15 05:16:50;;;;;;;8.53;3.57;;;;;;;1.50;58.47;100965.81;4974560;28;20883;-90
2022/03/15 05:19:16;;;;;;;3.47;2.70;;;;;;;1.56;58.21;100976.25;4974331;28;20633;-89
2022/03/15 05:21:41;;;;;;;4.93;3.40;;;;;;;1.56;58.35;100977.97;4957219;28;20180;-89
2022/03/15 05:24:07;;;;;;;8.27;4.13;;;;;;;1.58;59.26;100986.59;4974349;28;20245;-90
2022/03/15 05:26:32;;;;;;;6.87;3.13;;;;;;;1.59;59.59;100983.19;4974445;28;20545;-90
2022/03/15 05:28:58;;;;;;;3.50;2.50;;;;;;;1.53;60.36;100988.25;4974224;28;20206;-90
2022/03/15 05:31:26;;;;;;;10.33;3.33;;;;;;;1.68;59.81;100980.69;4957108;28;20240;-89
2022/03/15 05:33:52;;;;;;;5.47;2.90;;;;;;;1.81;60.07;100988.63;4974482;28;20194;-90
2022/03/15 05:36:19;;;;;;;10.27;4.07;;;;;;;2.01;59.77;100986.28;4976868;28;20418;-89
2022/03/15 05:38:44;;;;;;;7.10;3.70;;;;;;;2.42;60.46;100991.88;4977132;28;20180;-89
2022/03/15 05:41:10;;;;;;;5.10;3.43;;;;;;;2.76;60.34;100987.88;4961342;28;20430;-90
2022/03/15 05:43:37;;;;;;;11.77;3.90;;;;;;;3.06;59.57;100986.41;4978024;28;20188;-89
2022/03/15 05:46:03;;;;;;;9.83;5.47;;;;;;;3.34;59.32;100986.56;4961014;28;20194;-89
2022/03/15 05:48:28;;;;;;;21.27;8.33;;;;;;;3.70;58.69;100990.22;4977880;28;20355;-89
2022/03/15 05:50:54;;;;;;;21.87;10.50;;;;;;;4.06;58.06;100973.94;4977928;28;20685;-89
2022/03/15 05:53:19;;;;;;;28.93;8.30;;;;;;;4.59;57.88;100975.75;4976923;28;20180;-88
2022/03/15 05:55:45;;;;;;;21.77;8.63;;;;;;;5.47;55.13;100977.44;4977873;28;20288;-88
2022/03/15 05:58:10;;;;;;;19.10;7.77;;;;;;;6.16;52.52;100975.44;4977802;28;20184;-87
2022/03/15 06:00:36;;;;;;;16.40;7.30;;;;;;;6.82;49.86;100961.09;4978266;28;20181;-88
2022/03/15 06:03:02;;;;;;;19.57;7.23;;;;;;;7.25;48.41;100964.19;4977716;28;20586;-88
2022/03/15 06:05:27;;;;;;;9.23;4.70;;;;;;;7.73;47.96;100968.84;4977712;28;20177;-87
2022/03/15 06:07:53;;;;;;;9.17;4.07;;;;;;;7.77;46.95;100970.56;4978115;28;20208;-87
2022/03/15 06:10:24;;;;;;;9.07;4.37;;;;;;;8.28;46.29;100974.25;4977615;28;20558;-87
2022/03/15 06:12:50;;;;;;;9.63;4.17;;;;;;;9.01;44.14;100974.03;4978128;28;20157;-88
2022/03/15 06:15:17;;;;;;;6.80;3.47;;;;;;;9.74;43.94;100962.19;4960390;28;20590;-87
2022/03/15 06:17:56;;;;;;;10.57;3.57;;;;;;;10.82;41.79;100952.78;4960704;28;20580;-87
2022/03/15 06:20:24;;;;;;;7.27;3.53;;;;;;;11.75;39.43;100959.94;4977972;28;20164;-87
2022/03/15 06:22:50;;;;;;;7.77;3.97;;;;;;;12.82;37.52;100947.84;4960305;28;20172;-87
2022/03/15 06:25:16;;;;;;;6.40;3.30;;;;;;;13.80;35.71;100936.50;4977394;28;20264;-87
2022/03/15 06:27:42;;;;;;;11.77;3.87;;;;;;;14.29;34.96;100938.13;4960171;28;20324;-87
2022/03/15 06:30:08;;;;;;;16.77;4.20;;;;;;;14.78;34.77;100934.41;4977125;28;20243;-86
2022/03/15 06:32:34;;;;;;;10.50;4.17;;;;;;;15.41;32.33;100948.47;4977462;28;20165;-87
2022/03/15 06:35:02;;;;;;;8.97;5.13;;;;;;;16.02;32.03;100939.53;4977116;28;20184;-87
2022/03/15 06:37:28;;;;;;;8.77;4.53;;;;;;;16.94;30.78;100936.84;4977692;28;20180;-87
2022/03/15 06:39:54;;;;;;;7.00;3.47;;;;;;;17.45;29.91;100951.88;4960264;28;20182;-87
2022/03/15 06:42:21;;;;;;;8.20;3.90;;;;;;;18.22;28.64;100951.22;4960267;28;20190;-87
2022/03/15 06:44:47;;;;;;;7.97;2.73;;;;;;;18.85;26.79;100951.22;4976959;28;20586;-87
2022/03/15 06:47:12;;;;;;;5.97;3.17;;;;;;;19.06;26.17;100947.31;4975377;28;20235;-87
2022/03/15 06:49:38;;;;;;;5.67;2.50;;;;;;;18.60;26.29;100959.75;4976788;28;20287;-87
2022/03/15 06:52:04;;;;;;;7.70;2.77;;;;;;;18.46;27.72;100948.16;4977069;28;20243;-87
2022/03/15 06:54:29;;;;;;;6.70;3.30;;;;;;;19.33;26.43;100961.66;4976742;28;20181;-87
2022/03/15 06:56:57;;;;;;;6.07;2.67;;;;;;;19.39;26.39;100958.63;4959977;28;20187;-87
2022/03/15 06:59:23;;;;;;;6.40;2.57;;;;;;;19.80;25.98;100955.28;4959608;28;20214;-87
2022/03/15 07:01:48;;;;;;;6.07;2.70;;;;;;;20.19;25.34;100950.97;4976607;28;20653;-88
2022/03/15 07:04:14;;;;;;;8.43;3.80;;;;;;;20.02;25.51;100953.81;4976845;28;20179;-88
2022/03/15 07:06:39;;;;;;;5.27;2.43;;;;;;;19.85;25.47;100951.38;4976755;28;20227;-88
2022/03/15 07:09:05;;;;;;;8.07;2.70;;;;;;;19.69;24.73;100950.59;4976984;28;20199;-88
2022/03/15 07:11:31;;;;;;;7.07;2.83;;;;;;;19.26;25.76;100954.13;4976400;28;20643;-89
2022/03/15 07:13:57;;;;;;;5.70;2.83;;;;;;;18.75;26.16;100945.59;4975455;28;20181;-89
2022/03/15 07:16:23;;;;;;;5.23;2.83;;;;;;;18.19;26.40;100947.88;4976307;28;20196;-89
2022/03/15 07:18:48;;;;;;;5.77;2.90;;;;;;;17.88;26.47;100958.44;4976568;28;20178;-89
2022/03/15 07:21:14;;;;;;;7.33;3.27;;;;;;;17.67;26.63;100953.34;4976236;28;20631;-89
2022/03/15 07:23:40;;;;;;;6.30;2.27;;;;;;;17.55;26.74;100961.09;4976475;28;20683;-89
2022/03/15 07:26:07;;;;;;;7.97;2.87;;;;;;;17.31;27.23;100957.91;4959493;28;20295;-89
2022/03/15 07:28:32;;;;;;;8.97;3.77;;;;;;;16.86;28.55;100952.25;4976027;28;20278;-89
2022/03/15 07:30:58;;;;;;;7.83;3.60;;;;;;;16.23;28.43;100946.47;4958945;28;20653;-90
2022/03/15 07:33:23;;;;;;;5.63;2.43;;;;;;;15.54;29.26;100958.44;4976568;28;20214;-89
2022/03/15 07:35:49;;;;;;;11.77;4.20;;;;;;;15.24;30.56;100965.91;4975999;28;20230;-88
2022/03/15 07:38:17;;;;;;;4.90;2.63;;;;;;;15.34;30.53;100969.88;4975967;28;20192;-90
2022/03/15 07:40:43;;;;;;;6.77;2.80;;;;;;;15.32;30.71;100961.16;4976150;28;20181;-89
2022/03/15 07:43:10;;;;;;;6.03;2.67;;;;;;;15.22;29.91;100964.25;4976185;28;20172;-88
2022/03/15 07:45:35;;;;;;;8.53;3.47;;;;;;;15.10;30.87;100957.69;4975797;28;20186;-89
2022/03/15 07:48:01;;;;;;;5.47;2.63;;;;;;;15.00;30.91;100964.28;4975957;28;20211;-89
2022/03/15 07:50:26;;;;;;;3.70;2.30;;;;;;;14.76;30.64;100957.38;4976264;28;20185;-89
2022/03/15 07:52:53;;;;;;;6.07;2.67;;;;;;;14.29;30.89;100961.00;4975912;28;20188;-89
2022/03/15 07:55:20;;;;;;;5.83;2.90;;;;;;;14.01;31.47;100956.78;4975919;28;20239;-88
2022/03/15 07:57:46;;;;;;;8.70;3.40;;;;;;;13.99;32.86;100953.34;4974675;28;20632;-89
2022/03/15 08:00:13;;;;;;;7.03;3.23;;;;;;;14.14;32.73;100952.78;4975495;28;20263;-89
2022/03/15 08:02:39;;;;;;;7.50;2.90;;;;;;;14.38;33.34;100960.69;4975467;28;20193;-89
2022/03/15 08:05:04;;;;;;;8.33;3.33;;;;;;;14.50;32.39;100953.13;4975709;28;20539;-89
2022/03/15 08:07:30;;;;;;;6.27;2.73;;;;;;;14.34;31.64;100956.44;4974408;28;20327;-90
2022/03/15 08:09:56;;;;;;;5.10;2.77;;;;;;;14.18;32.06;100961.41;4974608;28;20253;-89
2022/03/15 08:12:21;;;;;;;8.10;2.90;;;;;;;14.05;32.23;100961.03;4975540;28;20176;-90
2022/03/15 08:14:48;;;;;;;6.63;2.60;;;;;;;14.25;32.76;100957.63;4975305;28;20242;-89
2022/03/15 08:17:14;;;;;;;4.40;2.47;;;;;;;14.23;32.76;100953.34;4975743;28;20177;-90
2022/03/15 08:19:39;;;;;;;15.93;3.47;;;;;;;14.29;32.20;100953.09;4975203;28;20210;-89
2022/03/15 08:22:05;;;;;;;5.13;2.63;;;;;;;14.29;33.05;100950.44;4975362;28;20211;-90
2022/03/15 08:24:30;;;;;;;6.27;3.10;;;;;;;14.25;32.30;100956.78;4958038;28;20664;-89
2022/03/15 08:26:56;;;;;;;5.70;2.10;;;;;;;14.34;31.67;100964.34;4975328;28;20521;-89
2022/03/15 08:29:21;;;;;;;3.90;2.50;;;;;;;14.25;31.97;100956.78;4974980;28;20694;-90
2022/03/15 08:31:47;;;;;;;9.00;3.10;;;;;;;14.23;32.30;100956.81;4974856;28;20296;-89
2022/03/15 08:34:13;;;;;;;6.00;2.30;;;;;;;14.23;32.14;100948.91;4975476;28;20193;-90
2022/03/15 08:36:38;;;;;;;5.53;2.73;;;;;;;14.34;32.66;100948.53;4957859;28;20180;-89
2022/03/15 08:39:04;;;;;;;4.73;2.63;;;;;;;14.47;32.11;100944.47;4974851;28;20200;-90
2022/03/15 08:41:31;;;;;;;9.07;3.00;;;;;;;14.22;32.22;100951.59;4974817;28;20278;-89
2022/03/15 08:43:56;;;;;;;4.97;2.57;;;;;;;14.07;32.27;100947.78;4974777;28;20192;-90
2022/03/15 08:46:22;;;;;;;4.60;2.53;;;;;;;13.97;32.03;100942.00;4974807;28;20184;-91
2022/03/15 08:48:47;;;;;;;6.63;2.43;;;;;;;13.75;30.75;100942.84;4974676;28;20562;-91
2022/03/15 08:51:13;;;;;;;4.57;2.30;;;;;;;13.75;32.46;100951.63;4975248;28;20607;-90
2022/03/15 08:53:39;;;;;;;5.40;2.53;;;;;;;13.79;33.16;100947.94;4974719;28;20193;-91
2022/03/15 08:56:05;;;;;;;4.87;2.53;;;;;;;13.86;30.98;100930.97;4974602;28;20177;-89
2022/03/15 08:59:15;;;;;;;;;;;;;;;;;;;;;
2022/03/15 09:01:30;;;;;;;6.97;2.63;;;;;;;13.63;32.95;100936.25;4972847;28;20200;-89
2022/03/15 09:03:58;;;;;;;7.50;2.17;;;;;;;13.63;32.64;100928.34;4957657;28;20196;-91
2022/03/15 09:09:56;;;;;;;7.73;3.20;;;;;;;13.96;33.43;100915.69;4975084;28;20207;-90
2022/03/15 09:13:14;;;;;;;;;;;;;;;;;;;;;
2022/03/15 09:15:26;;;;;;;6.90;2.87;;;;;;;14.57;32.38;100909.75;4967193;28;20203;-90
2022/03/15 09:17:54;;;;;;;6.90;3.00;;;;;;;14.65;32.30;100912.06;4974587;28;20638;-90
2022/03/15 09:20:19;;;;;;;7.67;2.80;;;;;;;14.65;32.71;100909.41;4974354;28;20190;-89
2022/03/15 09:22:45;;;;;;;8.30;3.17;;;;;;;14.76;31.73;100896.66;4957342;28;20181;-90
2022/03/15 09:25:33;;;;;;;;;;;;;;;;;;;;;
2022/03/15 09:27:59;;;;;;;8.23;3.20;;;;;;;15.08;31.92;100888.22;4974328;28;20635;-90
2022/03/15 09:30:30;;;;;;;6.37;3.07;;;;;;;14.86;31.22;100887.41;4957157;28;20294;-90
2022/03/15 09:33:46;;;;;;;6.47;2.93;;;;;;;15.06;31.35;100892.72;4974568;28;20162;-91
2022/03/15 09:36:15;;;;;;;4.77;2.40;;;;;;;15.09;31.27;100887.31;4967918;28;20697;-91
2022/03/15 09:38:44;;;;;;;6.33;2.77;;;;;;;15.16;31.24;100883.47;4974118;28;20191;-91
2022/03/15 09:45:01;;;;;;;8.37;3.63;;;;;;;15.30;30.13;100881.06;4935449;28;20187;-91
2022/03/15 09:54:30;;;;;;;6.50;3.00;;;;;;;15.85;30.37;100853.00;4953575;29;20198;-91
2022/03/15 09:57:03;;;;;;;7.13;3.33;;;;;;;15.80;28.97;100859.47;4937362;29;20187;-91
2022/03/15 09:59:29;;;;;;;6.90;2.80;;;;;;;15.72;28.62;100851.03;4938841;28;20181;-90
2022/03/15 10:01:56;;;;;;;5.23;2.43;;;;;;;16.08;29.68;100848.44;4957251;28;20528;-90
2022/03/15 10:04:23;;;;;;;7.90;3.43;;;;;;;16.06;28.69;100850.31;4973036;28;20213;-90
2022/03/15 10:06:51;;;;;;;7.00;2.70;;;;;;;15.34;28.97;100840.38;4974172;28;20566;-90
2022/03/15 10:19:21;;;;;;;8.80;3.47;;;;;;;16.50;29.18;100823.38;4952956;28;20179;-91
2022/03/15 10:22:24;;;;;;;7.63;2.73;;;;;;;16.81;30.50;100824.50;4938568;29;20184;-91
2022/03/15 10:24:49;;;;;;;7.77;2.80;;;;;;;16.67;28.21;100816.38;4956580;29;20165;-90
2022/03/15 10:27:16;;;;;;;7.03;2.63;;;;;;;16.23;28.09;100803.56;4969758;28;20551;-90
2022/03/15 10:33:49;;;;;;;;;;;;;;;;;;;;;
2022/03/15 10:36:23;;;;;;;7.10;3.40;;;;;;;16.80;26.81;100785.69;4952225;29;20196;-90
2022/03/15 10:38:51;;;;;;;7.57;3.30;;;;;;;16.32;27.59;100783.75;4958181;29;20172;-90
2022/03/15 10:41:18;;;;;;;5.70;3.10;;;;;;;16.68;28.06;100775.75;4957750;29;20181;-91
2022/03/15 10:43:49;;;;;;;9.50;3.17;;;;;;;16.85;27.18;100771.28;4957735;29;20713;-91
2022/03/15 10:53:07;;;;;;;7.10;3.07;;;;;;;16.97;27.37;100735.34;4950400;29;20196;-90
2022/03/15 10:55:47;;;;;;;5.60;2.63;;;;;;;17.03;29.28;100729.72;4940621;29;20294;-91
2022/03/15 11:02:04;;;;;;;;;;;;;;;;;;;;;
2022/03/15 11:04:30;;;;;;;6.67;3.17;;;;;;;16.91;26.27;100709.19;4936650;29;20189;-90
2022/03/15 11:06:56;;;;;;;9.03;2.97;;;;;;;16.51;27.79;100708.59;4955738;29;20280;-90
2022/03/15 11:09:31;;;;;;;8.37;3.07;;;;;;;16.52;28.25;100706.81;4957397;29;20671;-90
2022/03/15 11:12:06;;;;;;;6.50;3.13;;;;;;;16.37;27.54;100702.31;4956290;29;20505;-91
2022/03/15 11:18:50;;;;;;;7.40;3.00;;;;;;;17.34;28.96;100682.06;4876976;29;20178;-91
2022/03/15 11:22:27;;;;;;;;;;;;;;;;;;;;;
2022/03/15 11:39:58;;;;;;;6.20;2.70;;;;;;;17.33;26.04;100648.53;4851890;29;20240;-91
2022/03/15 11:43:12;;;;;;;;;;;;;;;;;;;;;
2022/03/15 11:46:47;;;;;;;5.00;1.83;;;;;;;17.60;24.83;100630.25;4862011;29;20179;-91
2022/03/15 11:53:41;;;;;;;5.97;2.10;;;;;;;17.71;25.20;100617.22;4898151;29;20639;-89
2022/03/15 12:03:36;;;;;;;;;;;;;;;;;;;;;
2022/03/15 12:06:35;;;;;;;;;;;;;;;;;;;;;
2022/03/15 12:09:43;;;;;;;4.03;1.60;;;;;;;18.35;23.33;100582.34;4769629;30;20231;-91
2022/03/15 12:36:33;;;;;;;;;;;;;;;;;;;;;
2022/03/15 12:54:16;;;;;;;;;;;;;;;;;;;;;
2022/03/15 13:14:09;;;;;;;4.87;1.93;;;;;;;19.09;23.83;100499.72;5173607;27;21021;-92
2022/03/15 13:16:46;;;;;;;6.50;1.60;;;;;;;19.03;21.83;100507.13;5149689;27;20216;-92
2022/03/15 13:22:29;;;;;;;8.87;2.10;;;;;;;19.13;21.75;100495.91;5158438;27;20290;-90
2022/03/15 13:28:25;;;;;;;2.53;1.40;;;;;;;18.99;23.65;100488.84;5161797;27;20265;-91
2022/03/15 13:34:01;;;;;;;5.03;2.10;;;;;;;18.69;23.70;100478.41;5133109;27;20321;-92
2022/03/15 13:36:33;;;;;;;4.17;1.57;;;;;;;18.94;23.57;100470.56;5154210;27;20225;-91
2022/03/15 13:39:15;;;;;;;2.53;1.40;;;;;;;19.03;23.34;100466.41;5172871;27;20162;-91
2022/03/15 13:41:54;;;;;;;4.87;1.87;;;;;;;18.88;22.85;100473.59;5172825;27;20182;-92
2022/03/15 13:44:24;;;;;;;6.10;2.07;;;;;;;19.11;22.24;100465.91;5172520;27;20161;-91
2022/03/15 13:47:17;;;;;;;3.50;1.70;;;;;;;18.94;23.34;100473.22;5154962;27;20261;-91
2022/03/15 13:49:47;;;;;;;6.80;2.23;;;;;;;18.75;22.81;100469.19;5154181;27;20595;-91
2022/03/15 13:52:21;;;;;;;5.60;1.50;;;;;;;18.66;22.33;100470.63;5154294;27;20621;-92
2022/03/15 13:56:04;;;;;;;3.80;1.87;;;;;;;18.75;22.51;100464.72;5154893;27;20206;-94
2022/03/15 13:59:27;;;;;;;;;;;;;;;;;;;;;
2022/03/15 14:05:06;;;;;;;6.80;2.23;;;;;;;18.23;24.15;100463.66;5164278;27;20182;-92
2022/03/15 14:07:35;;;;;;;8.67;1.67;;;;;;;18.32;23.36;100455.09;5172470;27;20150;-91
2022/03/15 14:10:19;;;;;;;5.93;2.13;;;;;;;18.07;22.95;100460.25;5153686;27;20260;-92
2022/03/15 14:12:52;;;;;;;5.20;2.03;;;;;;;17.92;23.07;100456.78;5153686;27;20312;-91